sensor_id;sensor_type;location;lat;lon;timestamp;P1;durP1;ratioP1;P2;durP2;ratioP2
20557;SDS011;10437;48.156;11.530;2022-12-10T00:02:25;58.23;;;20.33;;
20557;SDS011;10437;48.156;11.530;2022-12-10T00:04:52;50.40;;;20.13;;
20557;SDS011;10437;48.156;11.530;2022-12-10T00:07:19;56.90;;;21.03;;
20557;SDS011;10437;48.156;11.530;2022-12-10T00:09:46;60.07;;;20.87;;
20557;SDS011;10437;48.156;11.530;2022-12-10T00:12:15;57.63;;;21.30;;
20557;SDS011;10437;48.156;11.530;2022-12-10T00:14:41;55.83;;;20.80;;
20557;SDS011;10437;48.156;11.530;2022-12-10T00:17:09;48.30;;;19.37;;
20557;SDS011;10437;48.156;11.530;2022-12-10T00:19:36;57.87;;;20.67;;
20557;SDS011;10437;48.156;11.530;2022-12-10T00:22:03;51.63;;;20.90;;
20557;SDS011;10437;48.156;11.530;2022-12-10T00:24:30;55.43;;;20.33;;
20557;SDS011;10437;48.156;11.530;2022-12-10T00:26:57;55.40;;;20.63;;
20557;SDS011;10437;48.156;11.530;2022-12-10T00:29:26;51.50;;;20.00;;
20557;SDS011;10437;48.156;11.530;2022-12-10T00:31:52;58.57;;;21.27;;
20557;SDS011;10437;48.156;11.530;2022-12-10T00:34:21;49.73;;;20.57;;
20557;SDS011;10437;48.156;11.530;2022-12-10T00:36:48;49.77;;;19.73;;
20557;SDS011;10437;48.156;11.530;2022-12-10T00:39:16;57.63;;;21.27;;
20557;SDS011;10437;48.156;11.530;2022-12-10T00:41:44;50.57;;;21.07;;
20557;SDS011;10437;48.156;11.530;2022-12-10T00:44:12;52.37;;;19.53;;
20557;SDS011;10437;48.156;11.530;2022-12-10T00:46:41;59.67;;;20.83;;
20557;SDS011;10437;48.156;11.530;2022-12-10T00:49:09;55.67;;;20.10;;
20557;SDS011;10437;48.156;11.530;2022-12-10T00:51:36;58.40;;;21.57;;
20557;SDS011;10437;48.156;11.530;2022-12-10T00:54:03;50.90;;;20.40;;
20557;SDS011;10437;48.156;11.530;2022-12-10T00:56:31;49.47;;;20.20;;
20557;SDS011;10437;48.156;11.530;2022-12-10T00:58:59;47.93;;;19.43;;
20557;SDS011;10437;48.156;11.530;2022-12-10T01:01:27;51.80;;;20.00;;
20557;SDS011;10437;48.156;11.530;2022-12-10T01:03:59;49.47;;;20.23;;
20557;SDS011;10437;48.156;11.530;2022-12-10T01:06:28;55.93;;;20.57;;
20557;SDS011;10437;48.156;11.530;2022-12-10T01:08:56;52.07;;;20.40;;
20557;SDS011;10437;48.156;11.530;2022-12-10T01:11:25;48.17;;;19.23;;
20557;SDS011;10437;48.156;11.530;2022-12-10T01:13:53;49.03;;;19.57;;
20557;SDS011;10437;48.156;11.530;2022-12-10T01:16:21;57.73;;;21.97;;
20557;SDS011;10437;48.156;11.530;2022-12-10T01:18:48;52.60;;;21.10;;
20557;SDS011;10437;48.156;11.530;2022-12-10T01:21:17;58.33;;;20.73;;
20557;SDS011;10437;48.156;11.530;2022-12-10T01:23:46;55.80;;;20.13;;
20557;SDS011;10437;48.156;11.530;2022-12-10T01:26:15;52.97;;;20.37;;
20557;SDS011;10437;48.156;11.530;2022-12-10T01:28:44;54.23;;;19.20;;
20557;SDS011;10437;48.156;11.530;2022-12-10T01:31:12;56.67;;;20.20;;
20557;SDS011;10437;48.156;11.530;2022-12-10T01:33:40;52.40;;;19.37;;
20557;SDS011;10437;48.156;11.530;2022-12-10T01:36:08;55.67;;;19.33;;
20557;SDS011;10437;48.156;11.530;2022-12-10T01:38:38;58.77;;;21.80;;
20557;SDS011;10437;48.156;11.530;2022-12-10T01:41:05;55.30;;;20.77;;
20557;SDS011;10437;48.156;11.530;2022-12-10T01:43:48;51.57;;;19.63;;
20557;SDS011;10437;48.156;11.530;2022-12-10T01:46:21;56.40;;;20.20;;
20557;SDS011;10437;48.156;11.530;2022-12-10T01:48:48;50.53;;;19.83;;
20557;SDS011;10437;48.156;11.530;2022-12-10T01:51:16;51.90;;;19.87;;
20557;SDS011;10437;48.156;11.530;2022-12-10T01:53:44;51.07;;;20.47;;
20557;SDS011;10437;48.156;11.530;2022-12-10T01:56:12;49.53;;;20.27;;
20557;SDS011;10437;48.156;11.530;2022-12-10T01:58:40;45.80;;;18.80;;
20557;SDS011;10437;48.156;11.530;2022-12-10T02:01:08;51.93;;;21.03;;
20557;SDS011;10437;48.156;11.530;2022-12-10T02:03:41;50.33;;;20.20;;
20557;SDS011;10437;48.156;11.530;2022-12-10T02:06:22;51.63;;;20.40;;
20557;SDS011;10437;48.156;11.530;2022-12-10T02:08:55;50.33;;;19.97;;
20557;SDS011;10437;48.156;11.530;2022-12-10T02:11:29;49.87;;;19.93;;
20557;SDS011;10437;48.156;11.530;2022-12-10T02:14:04;58.00;;;20.63;;
20557;SDS011;10437;48.156;11.530;2022-12-10T02:16:36;51.17;;;20.77;;
20557;SDS011;10437;48.156;11.530;2022-12-10T02:19:09;54.23;;;21.70;;
20557;SDS011;10437;48.156;11.530;2022-12-10T02:21:45;57.47;;;21.37;;
20557;SDS011;10437;48.156;11.530;2022-12-10T02:24:16;53.83;;;20.33;;
20557;SDS011;10437;48.156;11.530;2022-12-10T02:26:49;53.63;;;20.70;;
20557;SDS011;10437;48.156;11.530;2022-12-10T02:29:24;55.77;;;21.83;;
20557;SDS011;10437;48.156;11.530;2022-12-10T02:31:54;51.20;;;19.67;;
20557;SDS011;10437;48.156;11.530;2022-12-10T02:34:26;53.40;;;21.17;;
20557;SDS011;10437;48.156;11.530;2022-12-10T02:36:56;48.60;;;20.33;;
20557;SDS011;10437;48.156;11.530;2022-12-10T02:39:26;58.03;;;21.37;;
20557;SDS011;10437;48.156;11.530;2022-12-10T02:41:55;56.13;;;20.37;;
20557;SDS011;10437;48.156;11.530;2022-12-10T02:44:26;52.03;;;19.93;;
20557;SDS011;10437;48.156;11.530;2022-12-10T02:46:55;50.63;;;20.17;;
20557;SDS011;10437;48.156;11.530;2022-12-10T02:49:24;54.63;;;20.60;;
20557;SDS011;10437;48.156;11.530;2022-12-10T02:51:52;52.70;;;20.47;;
20557;SDS011;10437;48.156;11.530;2022-12-10T02:57:09;48.00;;;20.17;;
20557;SDS011;10437;48.156;11.530;2022-12-10T02:59:46;52.97;;;20.30;;
20557;SDS011;10437;48.156;11.530;2022-12-10T03:02:39;54.80;;;20.03;;
20557;SDS011;10437;48.156;11.530;2022-12-10T03:05:14;49.93;;;19.20;;
20557;SDS011;10437;48.156;11.530;2022-12-10T03:07:47;50.23;;;19.63;;
20557;SDS011;10437;48.156;11.530;2022-12-10T03:10:21;51.70;;;19.50;;
20557;SDS011;10437;48.156;11.530;2022-12-10T03:12:54;51.10;;;18.70;;
20557;SDS011;10437;48.156;11.530;2022-12-10T03:15:27;49.77;;;19.73;;
20557;SDS011;10437;48.156;11.530;2022-12-10T03:17:55;44.90;;;18.83;;
20557;SDS011;10437;48.156;11.530;2022-12-10T03:20:25;48.33;;;18.37;;
20557;SDS011;10437;48.156;11.530;2022-12-10T03:22:53;44.77;;;18.67;;
20557;SDS011;10437;48.156;11.530;2022-12-10T03:25:21;48.30;;;18.47;;
20557;SDS011;10437;48.156;11.530;2022-12-10T03:27:51;47.93;;;18.67;;
20557;SDS011;10437;48.156;11.530;2022-12-10T03:30:21;44.23;;;17.63;;
20557;SDS011;10437;48.156;11.530;2022-12-10T03:32:50;46.77;;;19.03;;
20557;SDS011;10437;48.156;11.530;2022-12-10T03:35:18;47.87;;;19.40;;
20557;SDS011;10437;48.156;11.530;2022-12-10T03:37:48;45.23;;;18.83;;
20557;SDS011;10437;48.156;11.530;2022-12-10T03:40:15;47.00;;;18.47;;
20557;SDS011;10437;48.156;11.530;2022-12-10T03:42:44;47.47;;;19.20;;
20557;SDS011;10437;48.156;11.530;2022-12-10T03:45:11;48.70;;;19.40;;
20557;SDS011;10437;48.156;11.530;2022-12-10T03:47:38;46.97;;;19.47;;
20557;SDS011;10437;48.156;11.530;2022-12-10T03:50:08;46.87;;;20.23;;
20557;SDS011;10437;48.156;11.530;2022-12-10T03:52:35;49.87;;;19.70;;
20557;SDS011;10437;48.156;11.530;2022-12-10T03:55:02;51.57;;;20.47;;
20557;SDS011;10437;48.156;11.530;2022-12-10T03:57:30;48.73;;;18.83;;
20557;SDS011;10437;48.156;11.530;2022-12-10T03:59:57;52.13;;;20.47;;
20557;SDS011;10437;48.156;11.530;2022-12-10T04:02:24;51.87;;;20.70;;
20557;SDS011;10437;48.156;11.530;2022-12-10T04:04:51;56.83;;;21.13;;
20557;SDS011;10437;48.156;11.530;2022-12-10T04:07:19;55.77;;;20.53;;
20557;SDS011;10437;48.156;11.530;2022-12-10T04:09:46;50.20;;;20.40;;
20557;SDS011;10437;48.156;11.530;2022-12-10T04:12:13;52.17;;;21.37;;
20557;SDS011;10437;48.156;11.530;2022-12-10T04:14:41;53.23;;;20.13;;
20557;SDS011;10437;48.156;11.530;2022-12-10T04:17:25;48.00;;;19.70;;
20557;SDS011;10437;48.156;11.530;2022-12-10T04:19:52;54.73;;;21.93;;
20557;SDS011;10437;48.156;11.530;2022-12-10T04:22:21;56.90;;;21.50;;
20557;SDS011;10437;48.156;11.530;2022-12-10T04:25:13;48.77;;;19.70;;
20557;SDS011;10437;48.156;11.530;2022-12-10T04:27:58;54.60;;;20.07;;
20557;SDS011;10437;48.156;11.530;2022-12-10T04:30:25;47.03;;;20.33;;
20557;SDS011;10437;48.156;11.530;2022-12-10T04:32:53;49.53;;;20.10;;
20557;SDS011;10437;48.156;11.530;2022-12-10T04:35:20;50.70;;;19.87;;
20557;SDS011;10437;48.156;11.530;2022-12-10T04:37:48;47.73;;;19.37;;
20557;SDS011;10437;48.156;11.530;2022-12-10T04:40:15;49.23;;;19.87;;
20557;SDS011;10437;48.156;11.530;2022-12-10T04:42:42;49.03;;;20.33;;
20557;SDS011;10437;48.156;11.530;2022-12-10T04:45:09;49.07;;;20.83;;
20557;SDS011;10437;48.156;11.530;2022-12-10T04:47:36;43.60;;;19.43;;
20557;SDS011;10437;48.156;11.530;2022-12-10T04:50:04;47.37;;;19.87;;
20557;SDS011;10437;48.156;11.530;2022-12-10T04:52:31;42.73;;;19.37;;
20557;SDS011;10437;48.156;11.530;2022-12-10T04:55:00;47.43;;;19.90;;
20557;SDS011;10437;48.156;11.530;2022-12-10T04:57:26;45.40;;;19.40;;
20557;SDS011;10437;48.156;11.530;2022-12-10T04:59:54;47.57;;;19.63;;
20557;SDS011;10437;48.156;11.530;2022-12-10T05:02:21;48.37;;;20.17;;
20557;SDS011;10437;48.156;11.530;2022-12-10T05:04:48;45.43;;;18.80;;
20557;SDS011;10437;48.156;11.530;2022-12-10T05:07:15;43.73;;;18.03;;
20557;SDS011;10437;48.156;11.530;2022-12-10T05:09:42;46.67;;;19.23;;
20557;SDS011;10437;48.156;11.530;2022-12-10T05:12:11;47.53;;;19.07;;
20557;SDS011;10437;48.156;11.530;2022-12-10T05:14:38;41.30;;;18.17;;
20557;SDS011;10437;48.156;11.530;2022-12-10T05:17:05;40.53;;;18.47;;
20557;SDS011;10437;48.156;11.530;2022-12-10T05:19:32;44.27;;;18.77;;
20557;SDS011;10437;48.156;11.530;2022-12-10T05:22:00;45.90;;;19.60;;
20557;SDS011;10437;48.156;11.530;2022-12-10T05:24:44;42.40;;;18.77;;
20557;SDS011;10437;48.156;11.530;2022-12-10T05:27:13;39.80;;;18.67;;
20557;SDS011;10437;48.156;11.530;2022-12-10T05:29:39;45.33;;;19.37;;
20557;SDS011;10437;48.156;11.530;2022-12-10T05:32:07;44.23;;;18.70;;
20557;SDS011;10437;48.156;11.530;2022-12-10T05:34:34;44.23;;;18.33;;
20557;SDS011;10437;48.156;11.530;2022-12-10T05:37:02;42.87;;;18.10;;
20557;SDS011;10437;48.156;11.530;2022-12-10T05:39:29;39.83;;;17.33;;
20557;SDS011;10437;48.156;11.530;2022-12-10T05:41:56;43.30;;;17.67;;
20557;SDS011;10437;48.156;11.530;2022-12-10T05:44:24;38.47;;;17.47;;
20557;SDS011;10437;48.156;11.530;2022-12-10T05:46:51;46.10;;;18.23;;
20557;SDS011;10437;48.156;11.530;2022-12-10T05:49:19;41.10;;;17.37;;
20557;SDS011;10437;48.156;11.530;2022-12-10T05:51:46;38.83;;;17.83;;
20557;SDS011;10437;48.156;11.530;2022-12-10T05:54:13;46.97;;;19.67;;
20557;SDS011;10437;48.156;11.530;2022-12-10T05:56:40;46.47;;;19.20;;
20557;SDS011;10437;48.156;11.530;2022-12-10T05:59:07;49.93;;;19.43;;
20557;SDS011;10437;48.156;11.530;2022-12-10T06:01:36;42.80;;;19.07;;
20557;SDS011;10437;48.156;11.530;2022-12-10T06:04:03;43.90;;;17.87;;
20557;SDS011;10437;48.156;11.530;2022-12-10T06:06:31;40.70;;;18.93;;
20557;SDS011;10437;48.156;11.530;2022-12-10T06:08:59;43.10;;;19.10;;
20557;SDS011;10437;48.156;11.530;2022-12-10T06:11:27;41.87;;;18.80;;
20557;SDS011;10437;48.156;11.530;2022-12-10T06:13:54;45.57;;;18.53;;
20557;SDS011;10437;48.156;11.530;2022-12-10T06:16:23;43.30;;;18.30;;
20557;SDS011;10437;48.156;11.530;2022-12-10T06:18:52;51.17;;;19.60;;
20557;SDS011;10437;48.156;11.530;2022-12-10T06:21:19;43.97;;;19.03;;
20557;SDS011;10437;48.156;11.530;2022-12-10T06:23:46;41.93;;;18.73;;
20557;SDS011;10437;48.156;11.530;2022-12-10T06:26:16;39.47;;;16.93;;
20557;SDS011;10437;48.156;11.530;2022-12-10T06:28:45;39.90;;;17.77;;
20557;SDS011;10437;48.156;11.530;2022-12-10T06:31:13;40.30;;;17.73;;
20557;SDS011;10437;48.156;11.530;2022-12-10T06:33:40;39.90;;;18.17;;
20557;SDS011;10437;48.156;11.530;2022-12-10T06:36:09;37.67;;;17.27;;
20557;SDS011;10437;48.156;11.530;2022-12-10T06:38:37;37.50;;;17.70;;
20557;SDS011;10437;48.156;11.530;2022-12-10T06:41:05;46.27;;;17.30;;
20557;SDS011;10437;48.156;11.530;2022-12-10T06:43:33;41.97;;;17.40;;
20557;SDS011;10437;48.156;11.530;2022-12-10T06:46:03;38.80;;;17.43;;
20557;SDS011;10437;48.156;11.530;2022-12-10T06:48:31;41.93;;;18.23;;
20557;SDS011;10437;48.156;11.530;2022-12-10T06:50:58;44.97;;;17.60;;
20557;SDS011;10437;48.156;11.530;2022-12-10T06:53:27;43.07;;;17.90;;
20557;SDS011;10437;48.156;11.530;2022-12-10T06:55:56;45.23;;;17.37;;
20557;SDS011;10437;48.156;11.530;2022-12-10T06:58:24;44.30;;;19.47;;
20557;SDS011;10437;48.156;11.530;2022-12-10T07:00:51;37.53;;;17.13;;
20557;SDS011;10437;48.156;11.530;2022-12-10T07:03:18;37.93;;;17.43;;
20557;SDS011;10437;48.156;11.530;2022-12-10T07:05:45;39.43;;;17.83;;
20557;SDS011;10437;48.156;11.530;2022-12-10T07:08:13;43.37;;;16.70;;
20557;SDS011;10437;48.156;11.530;2022-12-10T07:10:44;34.50;;;16.27;;
20557;SDS011;10437;48.156;11.530;2022-12-10T07:13:11;37.90;;;17.83;;
20557;SDS011;10437;48.156;11.530;2022-12-10T07:15:38;39.20;;;17.03;;
20557;SDS011;10437;48.156;11.530;2022-12-10T07:18:05;40.40;;;17.33;;
20557;SDS011;10437;48.156;11.530;2022-12-10T07:20:32;43.63;;;17.33;;
20557;SDS011;10437;48.156;11.530;2022-12-10T07:23:00;36.20;;;15.47;;
20557;SDS011;10437;48.156;11.530;2022-12-10T07:25:27;38.20;;;16.20;;
20557;SDS011;10437;48.156;11.530;2022-12-10T07:27:56;38.20;;;16.23;;
20557;SDS011;10437;48.156;11.530;2022-12-10T07:30:23;37.77;;;16.10;;
20557;SDS011;10437;48.156;11.530;2022-12-10T07:32:50;41.20;;;16.53;;
20557;SDS011;10437;48.156;11.530;2022-12-10T07:35:17;36.93;;;16.53;;
20557;SDS011;10437;48.156;11.530;2022-12-10T07:37:44;40.23;;;17.43;;
20557;SDS011;10437;48.156;11.530;2022-12-10T07:40:11;39.13;;;16.60;;
20557;SDS011;10437;48.156;11.530;2022-12-10T07:42:39;35.77;;;16.23;;
20557;SDS011;10437;48.156;11.530;2022-12-10T07:45:08;34.60;;;15.97;;
20557;SDS011;10437;48.156;11.530;2022-12-10T07:47:35;35.43;;;15.17;;
20557;SDS011;10437;48.156;11.530;2022-12-10T07:50:02;35.40;;;15.63;;
20557;SDS011;10437;48.156;11.530;2022-12-10T07:52:30;41.57;;;16.30;;
20557;SDS011;10437;48.156;11.530;2022-12-10T07:54:57;39.13;;;16.67;;
20557;SDS011;10437;48.156;11.530;2022-12-10T07:57:24;35.67;;;14.90;;
20557;SDS011;10437;48.156;11.530;2022-12-10T07:59:51;33.47;;;15.00;;
20557;SDS011;10437;48.156;11.530;2022-12-10T08:02:20;36.93;;;15.20;;
20557;SDS011;10437;48.156;11.530;2022-12-10T08:04:47;38.77;;;15.20;;
20557;SDS011;10437;48.156;11.530;2022-12-10T08:07:14;31.13;;;15.00;;
20557;SDS011;10437;48.156;11.530;2022-12-10T08:09:41;30.83;;;14.40;;
20557;SDS011;10437;48.156;11.530;2022-12-10T08:12:08;29.53;;;14.43;;
20557;SDS011;10437;48.156;11.530;2022-12-10T08:14:36;36.63;;;14.53;;
20557;SDS011;10437;48.156;11.530;2022-12-10T08:17:03;28.83;;;13.93;;
20557;SDS011;10437;48.156;11.530;2022-12-10T08:19:31;33.37;;;14.70;;
20557;SDS011;10437;48.156;11.530;2022-12-10T08:21:58;33.20;;;15.23;;
20557;SDS011;10437;48.156;11.530;2022-12-10T08:24:26;35.37;;;15.77;;
20557;SDS011;10437;48.156;11.530;2022-12-10T08:26:53;39.07;;;17.67;;
20557;SDS011;10437;48.156;11.530;2022-12-10T08:29:20;41.83;;;17.00;;
20557;SDS011;10437;48.156;11.530;2022-12-10T08:31:47;38.73;;;17.80;;
20557;SDS011;10437;48.156;11.530;2022-12-10T08:34:15;44.03;;;17.60;;
20557;SDS011;10437;48.156;11.530;2022-12-10T08:36:45;36.10;;;16.20;;
20557;SDS011;10437;48.156;11.530;2022-12-10T08:39:12;35.27;;;16.37;;
20557;SDS011;10437;48.156;11.530;2022-12-10T08:41:41;33.90;;;16.27;;
20557;SDS011;10437;48.156;11.530;2022-12-10T08:44:09;40.87;;;16.83;;
20557;SDS011;10437;48.156;11.530;2022-12-10T08:46:36;40.23;;;17.43;;
20557;SDS011;10437;48.156;11.530;2022-12-10T08:49:03;38.20;;;17.13;;
20557;SDS011;10437;48.156;11.530;2022-12-10T08:51:31;39.63;;;17.37;;
20557;SDS011;10437;48.156;11.530;2022-12-10T08:54:00;42.40;;;17.37;;
20557;SDS011;10437;48.156;11.530;2022-12-10T08:56:27;42.57;;;17.77;;
20557;SDS011;10437;48.156;11.530;2022-12-10T08:58:54;41.23;;;18.40;;
20557;SDS011;10437;48.156;11.530;2022-12-10T09:01:21;44.80;;;17.97;;
20557;SDS011;10437;48.156;11.530;2022-12-10T09:03:48;42.33;;;17.73;;
20557;SDS011;10437;48.156;11.530;2022-12-10T09:06:16;46.50;;;18.90;;
20557;SDS011;10437;48.156;11.530;2022-12-10T09:08:46;38.97;;;16.70;;
20557;SDS011;10437;48.156;11.530;2022-12-10T09:11:15;45.00;;;17.20;;
20557;SDS011;10437;48.156;11.530;2022-12-10T09:13:44;43.97;;;18.40;;
20557;SDS011;10437;48.156;11.530;2022-12-10T09:16:11;42.20;;;18.70;;
20557;SDS011;10437;48.156;11.530;2022-12-10T09:18:38;46.33;;;17.43;;
20557;SDS011;10437;48.156;11.530;2022-12-10T09:21:06;45.67;;;17.93;;
20557;SDS011;10437;48.156;11.530;2022-12-10T09:23:33;40.90;;;17.43;;
20557;SDS011;10437;48.156;11.530;2022-12-10T09:26:01;44.73;;;17.93;;
20557;SDS011;10437;48.156;11.530;2022-12-10T09:28:29;43.37;;;17.87;;
20557;SDS011;10437;48.156;11.530;2022-12-10T09:30:56;42.10;;;18.13;;
20557;SDS011;10437;48.156;11.530;2022-12-10T09:33:24;41.43;;;17.53;;
20557;SDS011;10437;48.156;11.530;2022-12-10T09:35:51;44.87;;;18.53;;
20557;SDS011;10437;48.156;11.530;2022-12-10T09:38:18;41.40;;;17.83;;
20557;SDS011;10437;48.156;11.530;2022-12-10T09:40:46;44.93;;;18.20;;
20557;SDS011;10437;48.156;11.530;2022-12-10T09:43:19;42.03;;;18.57;;
20557;SDS011;10437;48.156;11.530;2022-12-10T09:45:57;46.53;;;19.03;;
20557;SDS011;10437;48.156;11.530;2022-12-10T09:48:32;41.77;;;18.10;;
20557;SDS011;10437;48.156;11.530;2022-12-10T09:51:17;40.53;;;18.20;;
20557;SDS011;10437;48.156;11.530;2022-12-10T09:53:48;44.30;;;19.00;;
20557;SDS011;10437;48.156;11.530;2022-12-10T09:56:23;46.73;;;17.60;;
20557;SDS011;10437;48.156;11.530;2022-12-10T09:58:52;41.53;;;18.40;;
20557;SDS011;10437;48.156;11.530;2022-12-10T10:01:22;46.07;;;18.13;;
20557;SDS011;10437;48.156;11.530;2022-12-10T10:03:53;42.73;;;17.03;;
20557;SDS011;10437;48.156;11.530;2022-12-10T10:06:20;43.23;;;17.17;;
20557;SDS011;10437;48.156;11.530;2022-12-10T10:08:51;41.80;;;18.37;;
20557;SDS011;10437;48.156;11.530;2022-12-10T10:11:20;44.23;;;18.50;;
20557;SDS011;10437;48.156;11.530;2022-12-10T10:13:49;44.23;;;18.03;;
20557;SDS011;10437;48.156;11.530;2022-12-10T10:16:24;43.83;;;17.70;;
20557;SDS011;10437;48.156;11.530;2022-12-10T10:18:55;42.23;;;17.17;;
20557;SDS011;10437;48.156;11.530;2022-12-10T10:21:25;44.47;;;17.57;;
20557;SDS011;10437;48.156;11.530;2022-12-10T10:23:53;43.33;;;17.90;;
20557;SDS011;10437;48.156;11.530;2022-12-10T10:26:20;48.83;;;18.70;;
20557;SDS011;10437;48.156;11.530;2022-12-10T10:28:51;40.73;;;17.97;;
20557;SDS011;10437;48.156;11.530;2022-12-10T10:31:25;45.10;;;17.73;;
20557;SDS011;10437;48.156;11.530;2022-12-10T10:33:54;49.73;;;17.63;;
20557;SDS011;10437;48.156;11.530;2022-12-10T10:36:24;45.67;;;19.13;;
20557;SDS011;10437;48.156;11.530;2022-12-10T10:38:53;46.00;;;18.47;;
20557;SDS011;10437;48.156;11.530;2022-12-10T10:41:20;43.87;;;18.47;;
20557;SDS011;10437;48.156;11.530;2022-12-10T10:43:47;48.87;;;18.10;;
20557;SDS011;10437;48.156;11.530;2022-12-10T10:46:21;46.87;;;18.87;;
20557;SDS011;10437;48.156;11.530;2022-12-10T10:48:50;43.57;;;18.13;;
20557;SDS011;10437;48.156;11.530;2022-12-10T10:51:18;39.20;;;17.30;;
20557;SDS011;10437;48.156;11.530;2022-12-10T10:53:48;43.77;;;18.47;;
20557;SDS011;10437;48.156;11.530;2022-12-10T10:56:17;44.50;;;17.93;;
20557;SDS011;10437;48.156;11.530;2022-12-10T10:58:49;51.47;;;20.20;;
20557;SDS011;10437;48.156;11.530;2022-12-10T11:01:19;42.53;;;17.93;;
20557;SDS011;10437;48.156;11.530;2022-12-10T11:03:48;45.73;;;18.60;;
20557;SDS011;10437;48.156;11.530;2022-12-10T11:06:16;41.43;;;18.70;;
20557;SDS011;10437;48.156;11.530;2022-12-10T11:08:45;44.80;;;17.57;;
20557;SDS011;10437;48.156;11.530;2022-12-10T11:11:16;45.07;;;18.90;;
20557;SDS011;10437;48.156;11.530;2022-12-10T11:13:46;41.07;;;17.80;;
20557;SDS011;10437;48.156;11.530;2022-12-10T11:16:16;43.93;;;18.13;;
20557;SDS011;10437;48.156;11.530;2022-12-10T11:18:53;39.20;;;17.33;;
20557;SDS011;10437;48.156;11.530;2022-12-10T11:21:27;43.40;;;18.40;;
20557;SDS011;10437;48.156;11.530;2022-12-10T11:23:55;42.43;;;17.73;;
20557;SDS011;10437;48.156;11.530;2022-12-10T11:32:25;39.97;;;17.43;;
20557;SDS011;10437;48.156;11.530;2022-12-10T11:35:14;42.90;;;17.10;;
20557;SDS011;10437;48.156;11.530;2022-12-10T11:37:47;44.73;;;17.50;;
20557;SDS011;10437;48.156;11.530;2022-12-10T11:40:28;42.80;;;16.20;;
20557;SDS011;10437;48.156;11.530;2022-12-10T11:43:02;37.67;;;16.40;;
20557;SDS011;10437;48.156;11.530;2022-12-10T11:45:50;34.73;;;15.87;;
20557;SDS011;10437;48.156;11.530;2022-12-10T11:48:29;40.40;;;16.57;;
20557;SDS011;10437;48.156;11.530;2022-12-10T11:51:10;42.17;;;17.73;;
20557;SDS011;10437;48.156;11.530;2022-12-10T11:53:50;38.20;;;16.90;;
20557;SDS011;10437;48.156;11.530;2022-12-10T11:56:28;41.90;;;18.20;;
20557;SDS011;10437;48.156;11.530;2022-12-10T11:59:09;40.97;;;17.73;;
20557;SDS011;10437;48.156;11.530;2022-12-10T12:01:50;41.20;;;16.93;;
20557;SDS011;10437;48.156;11.530;2022-12-10T12:04:40;43.70;;;17.53;;
20557;SDS011;10437;48.156;11.530;2022-12-10T12:07:30;41.70;;;17.73;;
20557;SDS011;10437;48.156;11.530;2022-12-10T12:10:07;39.17;;;17.80;;
20557;SDS011;10437;48.156;11.530;2022-12-10T12:12:54;42.63;;;18.47;;
20557;SDS011;10437;48.156;11.530;2022-12-10T12:15:25;44.57;;;17.27;;
20557;SDS011;10437;48.156;11.530;2022-12-10T12:17:57;40.37;;;17.03;;
20557;SDS011;10437;48.156;11.530;2022-12-10T12:20:28;42.03;;;17.63;;
20557;SDS011;10437;48.156;11.530;2022-12-10T12:23:00;41.90;;;16.90;;
20557;SDS011;10437;48.156;11.530;2022-12-10T12:25:36;39.80;;;17.57;;
20557;SDS011;10437;48.156;11.530;2022-12-10T12:28:10;45.43;;;18.93;;
20557;SDS011;10437;48.156;11.530;2022-12-10T12:30:40;42.47;;;18.93;;
20557;SDS011;10437;48.156;11.530;2022-12-10T12:33:10;42.23;;;18.37;;
20557;SDS011;10437;48.156;11.530;2022-12-10T12:35:43;43.77;;;18.23;;
20557;SDS011;10437;48.156;11.530;2022-12-10T12:38:23;44.87;;;18.93;;
20557;SDS011;10437;48.156;11.530;2022-12-10T12:40:56;51.17;;;18.90;;
20557;SDS011;10437;48.156;11.530;2022-12-10T12:43:32;44.50;;;18.90;;
20557;SDS011;10437;48.156;11.530;2022-12-10T12:46:10;43.37;;;18.83;;
20557;SDS011;10437;48.156;11.530;2022-12-10T12:48:42;43.40;;;17.83;;
20557;SDS011;10437;48.156;11.530;2022-12-10T12:51:16;46.60;;;18.80;;
20557;SDS011;10437;48.156;11.530;2022-12-10T12:53:47;49.43;;;20.33;;
20557;SDS011;10437;48.156;11.530;2022-12-10T12:56:17;45.87;;;20.23;;
20557;SDS011;10437;48.156;11.530;2022-12-10T12:58:55;44.10;;;18.90;;
20557;SDS011;10437;48.156;11.530;2022-12-10T13:01:30;47.43;;;20.03;;
20557;SDS011;10437;48.156;11.530;2022-12-10T13:04:00;44.77;;;18.40;;
20557;SDS011;10437;48.156;11.530;2022-12-10T13:06:29;45.00;;;19.80;;
20557;SDS011;10437;48.156;11.530;2022-12-10T13:09:15;41.43;;;18.53;;
20557;SDS011;10437;48.156;11.530;2022-12-10T13:14:53;45.80;;;19.43;;
20557;SDS011;10437;48.156;11.530;2022-12-10T13:17:30;43.53;;;18.87;;
20557;SDS011;10437;48.156;11.530;2022-12-10T13:22:56;43.90;;;18.50;;
20557;SDS011;10437;48.156;11.530;2022-12-10T13:25:39;43.47;;;18.37;;
20557;SDS011;10437;48.156;11.530;2022-12-10T13:28:21;47.13;;;20.23;;
20557;SDS011;10437;48.156;11.530;2022-12-10T13:33:45;47.00;;;19.07;;
20557;SDS011;10437;48.156;11.530;2022-12-10T13:36:19;48.30;;;19.43;;
20557;SDS011;10437;48.156;11.530;2022-12-10T13:38:54;47.07;;;20.50;;
20557;SDS011;10437;48.156;11.530;2022-12-10T13:41:24;46.10;;;19.53;;
20557;SDS011;10437;48.156;11.530;2022-12-10T13:47:00;52.93;;;21.57;;
20557;SDS011;10437;48.156;11.530;2022-12-10T13:49:47;48.00;;;19.27;;
20557;SDS011;10437;48.156;11.530;2022-12-10T13:52:19;49.57;;;19.60;;
20557;SDS011;10437;48.156;11.530;2022-12-10T13:55:17;48.83;;;19.90;;
20557;SDS011;10437;48.156;11.530;2022-12-10T13:57:56;50.90;;;20.13;;
20557;SDS011;10437;48.156;11.530;2022-12-10T14:00:41;48.17;;;19.57;;
20557;SDS011;10437;48.156;11.530;2022-12-10T14:03:21;44.30;;;18.87;;
20557;SDS011;10437;48.156;11.530;2022-12-10T14:06:08;43.33;;;18.63;;
20557;SDS011;10437;48.156;11.530;2022-12-10T14:08:52;54.70;;;20.67;;
20557;SDS011;10437;48.156;11.530;2022-12-10T14:11:25;51.03;;;19.67;;
20557;SDS011;10437;48.156;11.530;2022-12-10T14:13:57;48.00;;;19.53;;
20557;SDS011;10437;48.156;11.530;2022-12-10T14:16:27;49.57;;;21.03;;
20557;SDS011;10437;48.156;11.530;2022-12-10T14:18:57;56.10;;;20.70;;
20557;SDS011;10437;48.156;11.530;2022-12-10T14:21:26;46.80;;;20.20;;
20557;SDS011;10437;48.156;11.530;2022-12-10T14:23:53;54.07;;;21.17;;
20557;SDS011;10437;48.156;11.530;2022-12-10T14:26:25;49.17;;;21.17;;
20557;SDS011;10437;48.156;11.530;2022-12-10T14:28:54;49.43;;;20.37;;
20557;SDS011;10437;48.156;11.530;2022-12-10T14:31:25;46.97;;;19.00;;
20557;SDS011;10437;48.156;11.530;2022-12-10T14:33:54;45.50;;;18.90;;
20557;SDS011;10437;48.156;11.530;2022-12-10T14:36:27;44.27;;;20.07;;
20557;SDS011;10437;48.156;11.530;2022-12-10T14:38:55;50.50;;;20.77;;
20557;SDS011;10437;48.156;11.530;2022-12-10T14:41:23;49.17;;;21.60;;
20557;SDS011;10437;48.156;11.530;2022-12-10T14:43:50;48.03;;;20.90;;
20557;SDS011;10437;48.156;11.530;2022-12-10T14:46:20;42.43;;;19.77;;
20557;SDS011;10437;48.156;11.530;2022-12-10T14:48:50;43.63;;;19.27;;